createdAt,value
2022-09-05T00:00:11.969Z,4.57
2022-09-05T00:04:34.200Z,5.00
2022-09-05T00:08:51.738Z,4.80
2022-09-05T00:13:07.831Z,5.40
2022-09-05T00:17:22.030Z,4.70
2022-09-05T00:24:25.377Z,4.77
2022-09-05T00:26:12.344Z,4.97
2022-09-05T00:31:50.966Z,5.50
2022-09-05T00:34:49.241Z,4.50
2022-09-05T00:39:03.403Z,4.77
2022-09-05T00:43:08.464Z,5.83
2022-09-05T00:47:28.808Z,4.93
2022-09-05T00:51:34.477Z,4.60
2022-09-05T00:55:52.325Z,5.37
2022-09-05T01:00:19.625Z,5.70
2022-09-05T01:04:30.741Z,4.57
2022-09-05T01:08:57.186Z,5.30
2022-09-05T01:13:22.138Z,4.70
2022-09-05T01:17:39.267Z,5.40
2022-09-05T01:22:02.702Z,4.63
2022-09-05T01:26:23.672Z,5.97
2022-09-05T01:30:37.790Z,5.20
2022-09-05T01:35:00.769Z,5.57
2022-09-05T01:40:14.778Z,5.57
2022-09-05T01:44:14.269Z,5.33
2022-09-05T01:48:40.995Z,4.70
2022-09-05T01:52:59.543Z,4.70
2022-09-05T01:57:06.302Z,5.20
2022-09-05T02:01:33.054Z,5.30
2022-09-05T02:05:56.488Z,5.77
2022-09-05T02:10:19.937Z,5.80
2022-09-05T02:14:39.991Z,6.63
2022-09-05T02:19:01.226Z,5.07
2022-09-05T02:23:25.960Z,6.80
2022-09-05T02:28:03.736Z,6.73
2022-09-05T02:31:43.182Z,6.17
2022-09-05T02:35:53.721Z,6.03
2022-09-05T02:45:01.927Z,6.47
2022-09-05T02:45:08.326Z,6.67
2022-09-05T02:48:18.257Z,6.50
2022-09-05T02:57:30.471Z,5.73
2022-09-05T02:57:37.624Z,6.47
2022-09-05T03:00:45.715Z,5.90
2022-09-05T03:04:52.565Z,6.20
2022-09-05T03:09:28.135Z,6.50
2022-09-05T03:13:59.175Z,5.80
2022-09-05T03:18:21.656Z,6.30
2022-09-05T03:22:46.796Z,5.57
2022-09-05T03:27:20.616Z,6.07
2022-09-05T03:31:39.109Z,5.77
2022-09-05T03:35:50.123Z,5.17
2022-09-05T03:40:16.082Z,5.60
2022-09-05T03:44:38.864Z,5.83
2022-09-05T03:48:46.788Z,5.77
2022-09-05T03:57:25.622Z,4.97
2022-09-05T03:57:55.627Z,5.20
2022-09-05T04:07:38.782Z,5.60
2022-09-05T04:08:15.371Z,6.07
2022-09-05T04:10:45.599Z,5.80
2022-09-05T04:14:52.238Z,5.80
2022-09-05T04:19:15.659Z,5.13
2022-09-05T04:23:26.808Z,5.27
2022-09-05T04:27:35.322Z,6.23
2022-09-05T04:32:07.465Z,8.30
2022-09-05T04:36:17.953Z,8.53
2022-09-05T04:40:37.640Z,8.40
2022-09-05T04:44:59.600Z,7.90
2022-09-05T04:49:20.490Z,6.73
2022-09-05T04:53:29.224Z,7.70
2022-09-05T04:57:39.880Z,7.50
2022-09-05T05:06:00.596Z,7.67
2022-09-05T05:06:37.984Z,7.53
2022-09-05T05:12:42.840Z,6.00
2022-09-05T05:17:57.935Z,7.20
2022-09-05T05:18:56.473Z,6.30
2022-09-05T05:22:49.726Z,7.23
2022-09-05T05:26:58.715Z,6.30
2022-09-05T05:31:09.719Z,6.70
2022-09-05T05:35:13.903Z,6.47
2022-09-05T05:39:29.449Z,8.00
2022-09-05T05:43:45.521Z,6.67
2022-09-05T05:47:46.000Z,7.77
2022-09-05T05:52:02.564Z,8.23
2022-09-05T05:56:22.169Z,6.60
2022-09-05T06:00:30.394Z,6.50
2022-09-05T06:04:59.601Z,7.73
2022-09-05T06:11:59.806Z,8.10
2022-09-05T06:14:59.311Z,6.17
2022-09-05T06:18:09.264Z,6.20
2022-09-05T06:22:48.190Z,5.40
2022-09-05T06:27:13.362Z,5.50
2022-09-05T06:31:30.281Z,5.40
2022-09-05T06:35:59.067Z,5.57
2022-09-05T06:40:16.589Z,6.00
2022-09-05T06:44:30.726Z,5.80
2022-09-05T06:48:45.858Z,5.40
2022-09-05T06:52:54.064Z,5.60
2022-09-05T06:57:14.305Z,4.77
2022-09-05T07:01:19.886Z,4.90
2022-09-05T07:05:42.537Z,4.63
2022-09-05T07:09:51.484Z,4.47
2022-09-05T07:14:07.351Z,4.27
2022-09-05T07:18:21.545Z,4.33
2022-09-05T07:22:48.805Z,5.17
2022-09-05T07:26:53.484Z,4.87
2022-09-05T07:31:03.385Z,4.50
2022-09-05T07:35:07.556Z,4.87
2022-09-05T07:39:28.137Z,4.70
2022-09-05T07:43:31.711Z,3.93
2022-09-05T07:47:36.742Z,3.83
2022-09-05T07:56:50.998Z,3.47
2022-09-05T07:56:56.045Z,4.37
2022-09-05T08:00:26.924Z,3.70
2022-09-05T08:04:28.187Z,3.83
2022-09-05T08:09:18.642Z,3.60
2022-09-05T08:13:24.089Z,3.50
2022-09-05T08:16:59.380Z,2.90
2022-09-05T08:21:07.190Z,3.10
2022-09-05T08:25:16.372Z,3.20
2022-09-05T08:29:32.995Z,3.00
2022-09-05T08:33:36.119Z,3.20
2022-09-05T08:37:38.628Z,3.57
2022-09-05T08:41:54.627Z,3.20
2022-09-05T08:46:40.347Z,2.80
2022-09-05T08:50:15.491Z,2.80
2022-09-05T08:54:43.226Z,3.40
2022-09-05T08:59:32.514Z,3.07
2022-09-05T09:03:16.283Z,2.73
2022-09-05T09:07:51.035Z,3.23
2022-09-05T09:11:50.110Z,2.50
2022-09-05T09:16:10.725Z,3.23
2022-09-05T09:20:18.881Z,3.20
2022-09-05T09:24:45.039Z,2.70
2022-09-05T09:28:52.316Z,2.50
2022-09-05T09:32:59.409Z,2.53
2022-09-05T09:37:19.261Z,2.63
2022-09-05T09:41:26.361Z,2.70
2022-09-05T09:45:43.789Z,2.13
2022-09-05T09:49:54.544Z,2.30
2022-09-05T09:54:30.410Z,2.50
2022-09-05T09:58:47.223Z,2.30
2022-09-05T10:10:32.467Z,2.57
2022-09-05T10:10:49.591Z,2.17
2022-09-05T10:11:54.185Z,2.27
2022-09-05T10:16:27.950Z,3.03
2022-09-05T10:20:45.025Z,2.70
2022-09-05T10:25:18.736Z,2.40
2022-09-05T10:29:36.463Z,2.60
2022-09-05T10:35:19.949Z,8.90
2022-09-05T10:38:26.177Z,2.47
2022-09-05T10:42:34.395Z,6.10
2022-09-05T10:46:56.861Z,2.50
2022-09-05T10:51:01.391Z,2.63
2022-09-05T10:55:21.461Z,2.50
2022-09-05T11:02:16.277Z,2.77
2022-09-05T11:03:45.264Z,2.50
2022-09-05T11:08:10.481Z,2.70
2022-09-05T11:12:48.790Z,2.40
2022-09-05T11:16:55.647Z,3.07
2022-09-05T11:21:00.634Z,2.27
2022-09-05T11:25:04.503Z,2.60
2022-09-05T11:29:12.563Z,2.80
2022-09-05T11:39:53.633Z,2.93
2022-09-05T11:39:54.439Z,3.17
2022-09-05T11:42:24.817Z,2.70
2022-09-05T11:46:38.718Z,2.50
2022-09-05T11:50:52.636Z,2.53
2022-09-05T11:55:21.013Z,2.40
2022-09-05T12:00:17.218Z,2.60
2022-09-05T12:04:13.233Z,2.30
2022-09-05T12:08:36.638Z,3.10
2022-09-05T12:12:45.198Z,2.80
2022-09-05T12:16:56.400Z,2.70
2022-09-05T12:21:17.534Z,2.80
2022-09-05T12:27:37.048Z,2.83
2022-09-05T12:29:51.164Z,2.40
2022-09-05T12:36:06.600Z,2.67
2022-09-05T12:40:44.620Z,2.40
2022-09-05T12:42:20.698Z,6.13
2022-09-05T12:46:29.741Z,3.40
2022-09-05T12:50:54.056Z,3.10
2022-09-05T12:55:00.751Z,2.83
2022-09-05T13:03:05.044Z,2.63
2022-09-05T13:03:37.915Z,2.40
2022-09-05T13:07:21.494Z,3.17
2022-09-05T13:14:50.749Z,2.43
2022-09-05T13:15:34.912Z,2.60
2022-09-05T13:19:48.001Z,2.50
2022-09-05T13:24:20.478Z,2.67
2022-09-05T13:28:25.616Z,3.00
2022-09-05T13:38:02.655Z,2.40
2022-09-05T13:38:10.787Z,2.80
2022-09-05T13:40:58.913Z,2.80
2022-09-05T13:45:01.342Z,2.10
2022-09-05T13:49:27.661Z,2.60
2022-09-05T13:53:37.604Z,3.30
2022-09-05T13:57:45.809Z,3.07
2022-09-05T14:02:25.066Z,2.40
2022-09-05T14:06:30.767Z,2.57
2022-09-05T14:10:22.674Z,2.30
2022-09-05T14:19:02.913Z,2.80
2022-09-05T14:23:07.424Z,2.33
2022-09-05T14:27:12.520Z,2.27
2022-09-05T14:35:10.945Z,2.50
2022-09-05T14:37:51.713Z,2.30
2022-09-05T14:39:42.602Z,2.53
2022-09-05T14:43:57.193Z,2.37
2022-09-05T14:48:24.996Z,2.80
2022-09-05T14:52:29.483Z,2.40
2022-09-05T14:57:23.478Z,2.30
2022-09-05T15:02:54.234Z,2.60
2022-09-05T15:04:59.951Z,2.57
2022-09-05T15:11:25.642Z,2.73
2022-09-05T15:13:13.044Z,2.67
2022-09-05T15:17:22.512Z,2.33
2022-09-05T15:21:36.188Z,2.80
2022-09-05T15:26:06.187Z,2.23
2022-09-05T15:30:21.509Z,2.47
2022-09-05T15:34:27.656Z,2.33
2022-09-05T15:38:55.318Z,2.77
2022-09-05T15:42:38.616Z,3.10
2022-09-05T15:46:50.786Z,2.30
2022-09-05T15:50:55.000Z,2.50
2022-09-05T15:55:21.564Z,2.13
2022-09-05T15:59:26.487Z,2.10
2022-09-05T16:06:05.328Z,2.10
2022-09-05T16:10:41.555Z,2.00
2022-09-05T16:20:31.598Z,1.93
2022-09-05T16:23:26.994Z,1.97
2022-09-05T16:24:34.876Z,2.20
2022-09-05T16:28:41.743Z,2.03
2022-09-05T16:32:50.882Z,2.30
2022-09-05T16:37:02.418Z,2.40
2022-09-05T16:41:02.844Z,2.17
2022-09-05T16:45:08.011Z,3.90
2022-09-05T16:49:29.711Z,2.47
2022-09-05T16:53:47.423Z,2.53
2022-09-05T16:57:57.905Z,2.80
2022-09-05T17:02:09.101Z,2.67
2022-09-05T17:06:25.825Z,2.47
2022-09-05T17:10:32.457Z,2.80
2022-09-05T17:14:37.196Z,2.40
2022-09-05T17:18:40.652Z,2.60
2022-09-05T17:26:53.477Z,2.90
2022-09-05T17:29:30.256Z,2.93
2022-09-05T17:35:17.085Z,3.00
2022-09-05T17:39:45.140Z,3.00
2022-09-05T17:43:40.768Z,2.87
2022-09-05T17:47:48.731Z,2.50
2022-09-05T17:51:58.775Z,3.60
2022-09-05T17:56:04.612Z,3.27
2022-09-05T18:00:47.339Z,2.40
2022-09-05T18:04:50.898Z,3.07
2022-09-05T18:08:52.962Z,3.13
2022-09-05T18:13:12.853Z,2.90
2022-09-05T18:17:37.456Z,2.73
2022-09-05T18:21:21.388Z,3.50
2022-09-05T18:25:30.738Z,3.10
2022-09-05T18:29:57.509Z,3.63
2022-09-05T18:33:56.353Z,3.53
2022-09-05T18:37:54.793Z,4.00
2022-09-05T18:42:33.450Z,3.60
2022-09-05T18:46:27.591Z,3.77
2022-09-05T18:50:32.997Z,3.33
2022-09-05T18:54:35.252Z,3.63
2022-09-05T18:58:51.524Z,3.50
2022-09-05T19:02:58.768Z,3.30
2022-09-05T19:07:07.681Z,3.43
2022-09-05T19:11:28.609Z,3.73
2022-09-05T19:15:19.858Z,3.43
2022-09-05T19:19:25.173Z,3.73
2022-09-05T19:23:30.263Z,3.27
2022-09-05T19:31:58.129Z,3.70
2022-09-05T19:36:50.318Z,3.43
2022-09-05T19:36:51.769Z,3.10
2022-09-05T19:47:27.073Z,3.10
2022-09-05T19:47:36.821Z,3.77
2022-09-05T19:48:26.968Z,3.40
2022-09-05T19:52:28.398Z,4.30
2022-09-05T19:56:41.471Z,6.07
2022-09-05T20:00:50.433Z,4.53
2022-09-05T20:04:52.989Z,4.30
2022-09-05T20:09:10.724Z,3.60
2022-09-05T20:13:21.503Z,4.40
2022-09-05T20:17:26.046Z,5.20
2022-09-05T20:21:29.771Z,3.37
2022-09-05T20:25:40.811Z,4.30
2022-09-05T20:29:55.734Z,3.60
2022-09-05T20:34:02.480Z,3.87
2022-09-05T20:43:18.832Z,4.60
2022-09-05T20:43:31.716Z,3.80
2022-09-05T20:49:35.195Z,5.20
2022-09-05T20:54:16.794Z,3.73
2022-09-05T20:54:52.405Z,4.10
2022-09-05T20:58:55.700Z,4.37
2022-09-05T21:02:59.510Z,3.37
2022-09-05T21:07:10.095Z,3.80
2022-09-05T21:11:12.940Z,4.33
2022-09-05T21:15:52.529Z,4.30
2022-09-05T21:19:32.582Z,4.47
2022-09-05T21:23:36.524Z,4.50
2022-09-05T21:27:37.953Z,4.63
2022-09-05T21:31:53.555Z,4.03
2022-09-05T21:35:56.704Z,4.07
2022-09-05T21:40:01.146Z,4.23
2022-09-05T21:47:38.728Z,4.13
2022-09-05T21:48:09.743Z,4.00
2022-09-05T21:52:11.029Z,3.87
2022-09-05T21:59:25.913Z,4.30
2022-09-05T22:00:23.000Z,4.90
2022-09-05T22:04:24.933Z,4.33
2022-09-05T22:08:26.074Z,4.67
2022-09-05T22:12:32.124Z,4.43
2022-09-05T22:16:33.397Z,4.30
2022-09-05T22:20:38.252Z,4.60
2022-09-05T22:24:40.787Z,4.10
2022-09-05T22:28:43.871Z,3.57
2022-09-05T22:32:45.114Z,3.80
2022-09-05T22:36:46.340Z,4.30
2022-09-05T22:40:48.376Z,3.80
2022-09-05T22:44:50.796Z,3.57
2022-09-05T22:48:52.135Z,4.23
2022-09-05T22:52:53.351Z,3.73
2022-09-05T22:56:54.505Z,3.63
2022-09-05T23:00:58.072Z,4.47
2022-09-05T23:04:59.203Z,4.07
2022-09-05T23:09:00.479Z,3.97
2022-09-05T23:13:06.454Z,4.07
2022-09-05T23:17:07.680Z,4.40
2022-09-05T23:21:14.332Z,4.50
2022-09-05T23:25:15.888Z,4.30
2022-09-05T23:29:17.026Z,4.10
2022-09-05T23:33:18.813Z,4.30
2022-09-05T23:37:20.033Z,3.90
2022-09-05T23:41:21.371Z,4.03
2022-09-05T23:45:23.887Z,4.10
2022-09-05T23:49:25.237Z,4.13
2022-09-05T23:53:26.707Z,4.13
2022-09-05T23:57:27.825Z,3.60
